WetterOnline ( https://www.wetteronline.at )

Wetter aktuell Fehmarn

Aktuelles Wetter: Westermarkelsdorf (9m)

6-stündlich | Neueste Meldungen
Ortszeit Temperatur Wetter
Di, 17.05. 8:00 13.1° C wolkig
Di, 17.05. 2:00 12.5° C bedeckt
Mo, 16.05. 20:00 13.9° C bedeckt
Mo, 16.05. 14:00 14.8° C bedeckt
Mo, 16.05. 8:00 12.8° C bedeckt
Mo, 16.05. 2:00 9.3° C wolkenlos
So, 15.05. 20:00 15.2° C fast wolkenlos
So, 15.05. 14:00 12.7° C wolkenlos
Ortszeit Temperatur Wetter
Di, 17.05. 10:00 14.6° C bedeckt
Di, 17.05. 9:50 14.6° C bedeckt
Di, 17.05. 9:40 14.2° C bedeckt
Di, 17.05. 9:30 14.3° C bedeckt
Di, 17.05. 9:20 14.3° C bedeckt
Di, 17.05. 9:10 14.2° C bedeckt
Di, 17.05. 9:00 13.7° C bedeckt
Di, 17.05. 8:30 13.2° C wolkig
Di, 17.05. 8:00 13.1° C wolkig
Di, 17.05. 7:30 12.8° C bedeckt
Di, 17.05. 7:00 12.4° C bedeckt
Ortszeit Relative Feuchte Sichtweite
Di, 17.05. 8:00 80% 55 km
Di, 17.05. 2:00 80% 60 km
Mo, 16.05. 20:00 64% >70 km
Mo, 16.05. 14:00 70% 40 km
Mo, 16.05. 8:00 86% 45 km
Mo, 16.05. 2:00 87% 45 km
So, 15.05. 20:00 51% 60 km
So, 15.05. 14:00 88% 23 km
Ortszeit Relative Feuchte Sichtweite
Di, 17.05. 10:00 75% >70 km
Di, 17.05. 9:50 75% -
Di, 17.05. 9:40 73% -
Di, 17.05. 9:30 71% 65 km
Di, 17.05. 9:20 71% -
Di, 17.05. 9:10 73% -
Di, 17.05. 9:00 75% 45 km
Di, 17.05. 8:30 76% 35 km
Di, 17.05. 8:00 80% 55 km
Di, 17.05. 7:30 81% 60 km
Di, 17.05. 7:00 84% 50 km
Ortszeit Niederschlagsmenge Niederschlagsart
Di, 17.05. 8:00 0.0 l/m2 in 12 Std. -
Di, 17.05. 2:00 0.0 l/m2 in 6 Std. -
Mo, 16.05. 20:00 0.0 l/m2 in 12 Std. -
Mo, 16.05. 14:00 0.0 l/m2 in 6 Std. -
Mo, 16.05. 8:00 0.0 l/m2 in 12 Std. -
Mo, 16.05. 2:00 0.0 l/m2 in 6 Std. -
So, 15.05. 20:00 0.0 l/m2 in 12 Std. -
So, 15.05. 14:00 0.0 l/m2 in 6 Std. -
Ortszeit Niederschlagsmenge Niederschlagsart
Di, 17.05. 10:00 0.0 l/m2 in 1 Std. -
Di, 17.05. 9:50 keine Meldung -
Di, 17.05. 9:40 keine Meldung -
Di, 17.05. 9:30 0.0 l/m2 in 1 Std. -
Di, 17.05. 9:20 keine Meldung -
Di, 17.05. 9:10 keine Meldung -
Di, 17.05. 9:00 0.0 l/m2 in 1 Std. -
Di, 17.05. 8:30 0.0 l/m2 in 1 Std. -
Di, 17.05. 8:00 0.0 l/m2 in 1 Std. -
Di, 17.05. 7:30 0.0 l/m2 in 1 Std. -
Di, 17.05. 7:00 0.0 l/m2 in 1 Std. -
Ortszeit Stärke Spitze Richtung
km/h Bft. km/h Grad Sektor
Di, 17.05. 8:00 19 3 33 90° O
Di, 17.05. 2:00 18 3 36 90° O
Mo, 16.05. 20:00 25 4 43 90° O
Mo, 16.05. 14:00 25 4 32 70° O
Mo, 16.05. 8:00 14 3 22 90° O
Mo, 16.05. 2:00 7 2 11 60° NO
So, 15.05. 20:00 4 1 14 20° N
So, 15.05. 14:00 11 2 22 300° NW
Ortszeit Stärke Spitze Richtung
km/h Bft. km/h Grad Sektor
Di, 17.05. 10:00 19 3 30 80° O
Di, 17.05. 9:50 19 3 - 80° O
Di, 17.05. 9:40 19 3 - 80° O
Di, 17.05. 9:30 22 4 30 100° O
Di, 17.05. 9:20 22 4 - 100° O
Di, 17.05. 9:10 22 4 - 100° O
Di, 17.05. 9:00 14 3 29 110° O
Di, 17.05. 8:30 19 3 30 100° O
Di, 17.05. 8:00 19 3 31 90° O
Di, 17.05. 7:30 19 3 30 90° O
Di, 17.05. 7:00 20 4 33 90° O
Ortszeit Untergrenze Bedeckung Gattung
total tief tief mittel hoch
Di, 17.05. 8:00 2100 m 8/8 2/8 - - -
Di, 17.05. 2:00 4500 m 8/8 8/8 - - -
Mo, 16.05. 20:00 4200 m 8/8 8/8 - - -
Mo, 16.05. 14:00 5400 m 8/8 8/8 - - -
Mo, 16.05. 8:00 4200 m 8/8 8/8 - - -
Mo, 16.05. 2:00 - 0/8 0/8 - - -
So, 15.05. 20:00 9000 m 1/8 0/8 - - -
So, 15.05. 14:00 - 0/8 0/8 - - -
Ortszeit Bedeckungsgrad in Achtel und Wolkenuntergrenze
Di, 17.05. 10:00 8(3600m) 8(5700m) 8(7200m)
Di, 17.05. 9:50 8(3600m) 8(5700m) 8(7200m)
Di, 17.05. 9:40 8
Di, 17.05. 9:30 8(3300m) 8(6000m) 8(6900m)
Di, 17.05. 9:20 8(3300m) 8(6000m) 8(6900m)
Di, 17.05. 9:10 8
Di, 17.05. 9:00 8(3300m) 8(4200m)
Di, 17.05. 8:30 3(2100m) 8(3600m) 8(4500m)
Di, 17.05. 8:00 2(2100m) 8(3600m) 8(4200m)
Di, 17.05. 7:30 8(2700m) 8(5700m)
Di, 17.05. 7:00 8(3000m)
Ortszeit Luftdruck NN (hPa) Tendenz (hPa in 3 Std.)
Di, 17.05. 8:00 1020 + 0,8
Di, 17.05. 2:00 1019 + 0,7
Mo, 16.05. 20:00 1019 - 0,7
Mo, 16.05. 14:00 1020 - 0,9
Mo, 16.05. 8:00 1021 - 0,1
Mo, 16.05. 2:00 1021 - 0,2
So, 15.05. 20:00 1021 - 1,0
So, 15.05. 14:00 1023 - 0,2
Ortszeit Luftdruck NN (hPa) Tendenz (hPa in 3 Std.)
Di, 17.05. 10:00 1021 + 1,7
Di, 17.05. 9:50 1021 keine Meldung
Di, 17.05. 9:40 1021 keine Meldung
Di, 17.05. 9:30 1021 + 1,6
Di, 17.05. 9:20 1021 keine Meldung
Di, 17.05. 9:10 1021 keine Meldung
Di, 17.05. 9:00 1021 + 1,6
Di, 17.05. 8:30 1020 + 1,2
Di, 17.05. 8:00 1020 + 0,8
Di, 17.05. 7:30 1020 + 0,2
Di, 17.05. 7:00 1019 - 0,5
Ortszeit Schneehöhe (cm)
Di, 17.05. 8:00 0
Di, 17.05. 2:00 0
Mo, 16.05. 20:00 0
Mo, 16.05. 14:00 0
Mo, 16.05. 8:00 0
Mo, 16.05. 2:00 0
So, 15.05. 20:00 0
So, 15.05. 14:00 0
Ortszeit Schneehöhe (cm)
Di, 17.05. 10:00 0
Di, 17.05. 9:50 0
Di, 17.05. 9:40 0
Di, 17.05. 9:30 0
Di, 17.05. 9:20 0
Di, 17.05. 9:10 0
Di, 17.05. 9:00 0
Di, 17.05. 8:30 0
Di, 17.05. 8:00 0
Di, 17.05. 7:30 0
Di, 17.05. 7:00 0
Link zu dieser Seite / Seite empfehlen

Das Wetter in ...